Time;durP1;ratioP1;P1;durP2;ratioP2;P2;SDS_P1;SDS_P2;PMS_P1;PMS_P2;Temp;Humidity;BMP_temperature;BMP_pressure;BME280_temperature;BME280_humidity;BME280_pressure;Samples;Min_cycle;Max_cycle;Signal;HPM_P1;HPM_P2
2022/12/13 00:00:46;;;;;;;43.30;23.00;;;-6.30;31.50;;;;;;4938553;28;20480;-59
2022/12/13 00:03:12;;;;;;;41.40;22.67;;;-6.30;31.50;;;;;;4940507;28;20467;-60
2022/12/13 00:05:44;;;;;;;41.97;19.90;;;-6.30;31.70;;;;;;4945068;28;20976;-60
2022/12/13 00:08:11;;;;;;;37.37;21.20;;;-6.30;31.90;;;;;;4956132;28;20486;-60
2022/12/13 00:10:39;;;;;;;39.17;23.00;;;-6.30;31.90;;;;;;4950385;28;20466;-60
2022/12/13 00:13:06;;;;;;;44.00;22.20;;;-6.20;32.00;;;;;;4951671;28;21105;-60
2022/12/13 00:15:33;;;;;;;51.40;22.87;;;-6.20;32.00;;;;;;4949066;28;20814;-60
2022/12/13 00:18:00;;;;;;;46.67;22.40;;;-6.20;32.70;;;;;;4952860;28;20472;-60
2022/12/13 00:20:26;;;;;;;56.13;21.80;;;-6.20;32.20;;;;;;4949741;28;20459;-60
2022/12/13 00:22:53;;;;;;;53.80;24.33;;;-6.20;32.50;;;;;;4950584;28;20490;-59
2022/12/13 00:25:20;;;;;;;40.93;21.73;;;-6.30;32.60;;;;;;4951025;28;20829;-60
2022/12/13 00:27:48;;;;;;;46.10;21.33;;;-6.30;32.80;;;;;;4959498;28;20532;-60
2022/12/13 00:30:15;;;;;;;54.27;22.90;;;-6.30;32.90;;;;;;4950137;28;20458;-59
2022/12/13 00:32:42;;;;;;;49.67;24.20;;;-6.30;33.00;;;;;;4948806;28;20487;-60
2022/12/13 00:35:09;;;;;;;42.03;22.60;;;-6.30;33.10;;;;;;4948606;28;20469;-60
2022/12/13 00:37:36;;;;;;;46.30;22.40;;;-6.30;33.20;;;;;;4950513;28;20462;-60
2022/12/13 00:40:02;;;;;;;57.67;23.27;;;-6.00;33.50;;;;;;4950681;28;20458;-60
2022/12/13 00:42:29;;;;;;;44.27;21.43;;;-6.30;33.50;;;;;;4952206;28;20474;-60
2022/12/13 00:44:57;;;;;;;51.93;23.93;;;-6.30;33.60;;;;;;4946629;28;20467;-59
2022/12/13 00:47:24;;;;;;;41.07;22.53;;;-6.30;33.80;;;;;;4951683;28;21273;-60
2022/12/13 00:49:51;;;;;;;39.80;20.53;;;-6.50;33.90;;;;;;4949288;28;20466;-60
2022/12/13 00:52:18;;;;;;;41.90;20.67;;;-6.30;34.00;;;;;;4952203;28;20483;-60
2022/12/13 00:54:44;;;;;;;41.00;20.77;;;-6.20;34.00;;;;;;4955604;28;20465;-60
2022/12/13 00:57:11;;;;;;;48.53;21.67;;;-6.30;34.00;;;;;;4948718;28;20459;-60
2022/12/13 00:59:38;;;;;;;40.00;20.87;;;-6.30;33.90;;;;;;4949197;28;20459;-60
2022/12/13 01:02:06;;;;;;;48.27;22.03;;;-6.20;33.70;;;;;;4953418;28;20495;-60
2022/12/13 01:04:33;;;;;;;37.70;20.60;;;-6.30;33.80;;;;;;4956633;28;20497;-60
2022/12/13 01:06:59;;;;;;;41.60;21.67;;;-6.30;33.80;;;;;;4954029;28;20472;-60
2022/12/13 01:09:29;;;;;;;42.40;21.70;;;-6.30;33.90;;;;;;4951682;28;20486;-60
2022/12/13 01:11:57;;;;;;;41.60;21.37;;;-6.30;33.90;;;;;;4952063;28;20481;-60
2022/12/13 01:14:24;;;;;;;41.27;20.83;;;-6.30;33.80;;;;;;4951353;28;20469;-60
2022/12/13 01:16:54;;;;;;;46.90;21.50;;;-6.30;33.70;;;;;;4947143;28;20466;-60
2022/12/13 01:19:22;;;;;;;33.23;18.53;;;-5.90;33.90;;;;;;4950315;28;20467;-60
2022/12/13 01:21:49;;;;;;;32.53;16.50;;;-5.90;34.00;;;;;;4955240;28;20485;-60
2022/12/13 01:24:19;;;;;;;33.03;19.37;;;-6.20;33.80;;;;;;4951742;28;20462;-60
2022/12/13 01:26:46;;;;;;;30.37;18.87;;;-6.40;33.60;;;;;;4952359;28;20462;-60
2022/12/13 01:29:13;;;;;;;38.53;23.60;;;-6.40;33.60;;;;;;4939126;28;20992;-60
2022/12/13 01:31:40;;;;;;;32.40;19.77;;;-6.90;33.30;;;;;;4951564;28;20486;-60
2022/12/13 01:34:09;;;;;;;40.30;20.00;;;-6.40;33.40;;;;;;4945525;28;21101;-60
2022/12/13 01:36:38;;;;;;;32.17;18.07;;;-6.40;33.30;;;;;;4947995;28;20964;-60
2022/12/13 01:39:05;;;;;;;38.13;18.73;;;-6.00;33.40;;;;;;4948627;28;20466;-60
2022/12/13 01:41:33;;;;;;;41.57;19.50;;;-6.40;33.10;;;;;;4947906;28;20493;-60
2022/12/13 01:44:02;;;;;;;35.60;19.90;;;-6.40;33.10;;;;;;4948042;28;20969;-59
2022/12/13 01:46:30;;;;;;;35.60;19.30;;;-6.40;33.20;;;;;;4954603;28;20562;-60
2022/12/13 01:49:02;;;;;;;35.50;21.07;;;-6.40;33.10;;;;;;4948054;28;20477;-60
2022/12/13 01:51:33;;;;;;;39.27;20.50;;;-6.40;33.10;;;;;;4951080;28;20550;-60
2022/12/13 01:54:03;;;;;;;36.67;19.27;;;-6.40;33.00;;;;;;4951458;28;20449;-59
2022/12/13 01:56:35;;;;;;;39.13;20.63;;;-6.40;33.00;;;;;;4956588;28;20485;-59
2022/12/13 01:59:04;;;;;;;31.73;16.93;;;-6.40;32.90;;;;;;4952340;28;20970;-59
2022/12/13 02:01:31;;;;;;;33.60;18.23;;;-6.40;32.90;;;;;;4950520;28;20485;-59
2022/12/13 02:03:58;;;;;;;43.50;22.90;;;-6.40;33.00;;;;;;4952914;28;20472;-60
2022/12/13 02:06:30;;;;;;;37.90;19.23;;;-6.40;33.00;;;;;;4940441;28;20974;-60
2022/12/13 02:08:57;;;;;;;36.47;19.50;;;-6.40;33.10;;;;;;4957620;28;21057;-59
2022/12/13 02:11:27;;;;;;;34.70;20.23;;;-6.30;33.20;;;;;;4953395;28;20521;-59
2022/12/13 02:13:54;;;;;;;32.53;17.87;;;-6.40;33.10;;;;;;4951846;28;20466;-60
2022/12/13 02:16:33;;;;;;;35.50;18.83;;;-6.40;33.20;;;;;;4951270;28;20494;-59
2022/12/13 02:19:29;;;;;;;37.70;19.77;;;-6.20;33.40;;;;;;4946241;28;21032;-60
2022/12/13 02:22:11;;;;;;;37.77;19.07;;;-6.40;33.50;;;;;;4952829;28;20576;-60
2022/12/13 02:24:57;;;;;;;29.53;18.70;;;-6.30;33.80;;;;;;4944173;28;20467;-60
2022/12/13 02:27:48;;;;;;;41.70;20.33;;;-6.30;33.80;;;;;;4952647;28;20469;-59
2022/12/13 02:30:23;;;;;;;38.03;19.43;;;-6.30;33.80;;;;;;4949090;28;20501;-59
2022/12/13 02:33:16;;;;;;;40.73;19.87;;;-6.30;34.20;;;;;;4948448;28;20477;-60
2022/12/13 02:35:51;;;;;;;45.53;20.30;;;-6.20;34.40;;;;;;4946009;28;20462;-60
2022/12/13 02:38:27;;;;;;;39.23;20.60;;;-6.30;34.50;;;;;;4951092;28;20493;-60
2022/12/13 02:41:00;;;;;;;37.30;20.17;;;-6.20;34.60;;;;;;4946916;28;20474;-60
2022/12/13 02:43:31;;;;;;;39.57;19.33;;;-6.20;34.70;;;;;;4961029;28;20459;-60
2022/12/13 02:46:01;;;;;;;32.50;18.87;;;-6.10;34.80;;;;;;4953198;28;20990;-60
2022/12/13 02:48:31;;;;;;;40.90;21.23;;;-6.10;34.80;;;;;;4952481;28;21009;-59
2022/12/13 02:51:00;;;;;;;35.33;18.53;;;-6.00;34.80;;;;;;4957898;28;20466;-60
2022/12/13 02:53:27;;;;;;;31.13;18.17;;;-6.10;34.60;;;;;;4951922;28;20462;-59
2022/12/13 02:55:54;;;;;;;33.17;19.00;;;-6.10;34.50;;;;;;4960221;28;20467;-60
2022/12/13 02:58:24;;;;;;;33.80;17.30;;;-5.90;34.60;;;;;;4956989;28;21094;-59
2022/12/13 03:00:58;;;;;;;33.63;17.67;;;-6.00;34.20;;;;;;4953618;28;20477;-59
2022/12/13 03:03:42;;;;;;;31.20;18.10;;;-6.00;34.10;;;;;;4950385;28;20990;-60
2022/12/13 03:06:30;;;;;;;35.97;18.80;;;-6.00;34.20;;;;;;4949321;28;20454;-59
2022/12/13 03:09:07;;;;;;;34.20;17.50;;;-6.10;34.20;;;;;;4940067;28;21056;-59
2022/12/13 03:14:35;;;;;;;35.37;18.07;;;-6.00;34.10;;;;;;4956135;28;20520;-60
2022/12/13 03:17:05;;;;;;;31.60;16.93;;;-6.00;34.20;;;;;;4954303;28;20455;-60
2022/12/13 03:19:34;;;;;;;35.47;17.53;;;-6.00;34.30;;;;;;4946576;28;20454;-60
2022/12/13 03:22:05;;;;;;;34.00;19.87;;;-6.10;34.40;;;;;;4950188;28;20502;-59
2022/12/13 03:24:31;;;;;;;28.17;16.77;;;-6.10;34.50;;;;;;4945245;28;20836;-60
2022/12/13 03:26:58;;;;;;;39.17;19.97;;;-6.10;34.60;;;;;;4948839;28;20469;-60
2022/12/13 03:29:25;;;;;;;37.27;18.47;;;-5.90;34.90;;;;;;4952942;28;20566;-60
2022/12/13 03:31:52;;;;;;;33.27;17.83;;;-6.00;35.20;;;;;;4953363;28;20494;-60
2022/12/13 03:34:19;;;;;;;34.13;17.80;;;-6.00;35.30;;;;;;4950347;28;20471;-60
2022/12/13 03:36:47;;;;;;;33.37;16.03;;;-6.00;35.10;;;;;;4949976;28;20476;-60
2022/12/13 03:39:13;;;;;;;37.70;18.80;;;-6.00;35.10;;;;;;4954373;28;20481;-60
2022/12/13 03:41:40;;;;;;;38.97;20.57;;;-6.00;35.10;;;;;;4959319;28;20478;-59
2022/12/13 03:44:08;;;;;;;38.63;19.60;;;-6.00;34.90;;;;;;4953681;28;20979;-59
2022/12/13 03:46:36;;;;;;;35.97;19.27;;;-5.90;34.80;;;;;;4946382;28;20541;-60
2022/12/13 03:49:03;;;;;;;32.80;19.00;;;-5.90;34.60;;;;;;4955995;28;20485;-60
2022/12/13 03:51:30;;;;;;;37.20;18.90;;;-5.70;34.70;;;;;;4953389;28;20486;-59
2022/12/13 03:53:58;;;;;;;41.03;22.00;;;-5.90;34.50;;;;;;4954151;28;21075;-59
2022/12/13 03:56:25;;;;;;;43.37;22.23;;;-5.90;34.40;;;;;;4958118;28;20453;-60
2022/12/13 03:58:52;;;;;;;36.93;20.57;;;-5.90;34.20;;;;;;4949785;28;20459;-59
2022/12/13 04:01:18;;;;;;;39.87;19.67;;;-5.90;34.10;;;;;;4952069;28;20505;-59
2022/12/13 04:03:47;;;;;;;42.60;20.57;;;-5.40;34.30;;;;;;4949624;28;20461;-60
2022/12/13 04:06:15;;;;;;;33.77;19.57;;;-6.00;33.90;;;;;;4949564;28;20467;-59
2022/12/13 04:08:41;;;;;;;33.37;18.70;;;-6.00;33.70;;;;;;4949305;28;20489;-60
2022/12/13 04:14:00;;;;;;;34.60;17.30;;;-6.10;33.60;;;;;;4946472;28;20458;-60
2022/12/13 04:16:26;;;;;;;38.80;20.33;;;-6.10;33.50;;;;;;4940343;28;20470;-60
2022/12/13 04:18:53;;;;;;;28.43;16.60;;;-6.10;33.30;;;;;;4949637;28;20462;-60
2022/12/13 04:21:20;;;;;;;37.00;20.20;;;-6.20;33.20;;;;;;4957264;28;20501;-59
2022/12/13 04:23:47;;;;;;;31.10;18.00;;;-6.20;33.10;;;;;;4950234;28;20464;-60
2022/12/13 04:26:15;;;;;;;34.20;18.03;;;-6.20;33.00;;;;;;4950336;28;20462;-59
2022/12/13 04:28:42;;;;;;;40.13;20.37;;;-6.00;33.10;;;;;;4951303;28;20492;-59
2022/12/13 04:31:08;;;;;;;38.47;19.30;;;-6.20;33.00;;;;;;4944158;28;20495;-59
2022/12/13 04:33:35;;;;;;;39.30;22.07;;;-6.20;33.10;;;;;;4949157;28;21030;-59
2022/12/13 04:36:02;;;;;;;38.40;19.60;;;-6.30;33.10;;;;;;4949691;28;20542;-59
2022/12/13 04:38:29;;;;;;;41.30;22.07;;;-6.30;33.30;;;;;;4938786;28;20467;-59
2022/12/13 04:41:05;;;;;;;40.40;20.10;;;-6.30;33.40;;;;;;4945597;28;20469;-60
2022/12/13 04:43:33;;;;;;;32.83;18.90;;;-6.30;33.50;;;;;;4938845;28;21726;-60
2022/12/13 04:46:00;;;;;;;34.70;18.07;;;-6.40;33.50;;;;;;4945570;28;20474;-60
2022/12/13 04:48:26;;;;;;;40.70;20.13;;;-6.30;33.70;;;;;;4942746;28;20916;-60
2022/12/13 04:50:53;;;;;;;39.90;18.90;;;-6.40;33.70;;;;;;4944258;28;20467;-59
2022/12/13 04:53:20;;;;;;;35.00;19.17;;;-6.30;33.80;;;;;;4942256;28;20466;-59
2022/12/13 04:55:46;;;;;;;35.23;19.87;;;-6.40;33.80;;;;;;4945181;28;20470;-60
2022/12/13 04:58:13;;;;;;;36.70;21.73;;;-6.40;33.80;;;;;;4945225;28;20467;-60
2022/12/13 05:00:41;;;;;;;35.47;19.37;;;-6.40;33.70;;;;;;4940629;28;20463;-60
2022/12/13 05:03:08;;;;;;;35.63;18.77;;;-6.40;33.70;;;;;;4942781;28;20474;-60
2022/12/13 05:05:38;;;;;;;38.30;18.67;;;-6.40;33.70;;;;;;4941517;28;20989;-60
2022/12/13 05:08:05;;;;;;;40.73;19.83;;;-6.40;33.70;;;;;;4940376;28;20989;-59
2022/12/13 05:10:32;;;;;;;45.97;21.67;;;-6.40;33.60;;;;;;4948170;28;20982;-59
2022/12/13 05:12:59;;;;;;;37.47;19.43;;;-6.50;33.50;;;;;;4941855;28;20483;-60
2022/12/13 05:15:26;;;;;;;35.83;18.47;;;-6.50;33.50;;;;;;4949087;28;20473;-59
2022/12/13 05:17:54;;;;;;;37.43;20.87;;;-6.40;33.40;;;;;;4959100;28;20541;-60
2022/12/13 05:20:21;;;;;;;36.60;20.17;;;-6.40;33.40;;;;;;4954287;28;20458;-60
2022/12/13 05:22:48;;;;;;;31.43;17.50;;;-6.50;33.40;;;;;;4953192;28;20537;-59
2022/12/13 05:25:14;;;;;;;37.27;18.10;;;-6.00;33.60;;;;;;4955627;28;21054;-60
2022/12/13 05:27:41;;;;;;;35.63;18.80;;;-6.50;33.50;;;;;;4950954;28;20494;-60
2022/12/13 05:30:09;;;;;;;39.77;20.00;;;-6.50;33.50;;;;;;4953705;28;20508;-59
2022/12/13 05:32:37;;;;;;;39.00;18.23;;;-6.60;33.30;;;;;;4948547;28;20482;-59
2022/12/13 05:35:07;;;;;;;32.43;18.07;;;-6.50;33.40;;;;;;4952260;28;20832;-60
2022/12/13 05:37:33;;;;;;;37.63;19.60;;;-6.60;33.30;;;;;;4957912;28;20493;-60
2022/12/13 05:40:00;;;;;;;33.30;17.80;;;-6.60;33.20;;;;;;4951681;28;20462;-59
2022/12/13 05:42:27;;;;;;;37.53;19.90;;;-6.60;33.30;;;;;;4946201;28;20577;-60
2022/12/13 05:44:54;;;;;;;39.13;19.97;;;-6.40;33.40;;;;;;4949741;28;20469;-60
2022/12/13 05:47:21;;;;;;;27.40;16.50;;;-6.50;33.40;;;;;;4938476;28;20543;-59
2022/12/13 05:49:47;;;;;;;33.63;17.57;;;-6.60;33.30;;;;;;4951980;28;20477;-59
2022/12/13 05:52:20;;;;;;;33.53;17.50;;;-6.60;33.20;;;;;;4946569;28;20482;-60
2022/12/13 05:54:47;;;;;;;37.40;18.30;;;-6.60;33.20;;;;;;4948049;28;20461;-59
2022/12/13 05:57:14;;;;;;;30.80;17.30;;;-6.60;33.10;;;;;;4943411;28;20477;-59
2022/12/13 05:59:41;;;;;;;37.63;17.07;;;-6.60;33.00;;;;;;4951658;28;20455;-59
2022/12/13 06:02:08;;;;;;;30.17;17.33;;;-6.60;32.90;;;;;;4946779;28;21026;-60
2022/12/13 06:04:34;;;;;;;41.07;18.07;;;-6.60;32.80;;;;;;4954094;28;20458;-59
2022/12/13 06:07:01;;;;;;;40.20;20.57;;;-6.60;32.80;;;;;;4956282;28;20458;-59
2022/12/13 06:09:29;;;;;;;43.23;19.57;;;-6.70;32.90;;;;;;4953797;28;20489;-59
2022/12/13 06:11:56;;;;;;;34.90;17.80;;;-6.70;33.00;;;;;;4945622;28;20490;-59
2022/12/13 06:14:23;;;;;;;41.47;21.80;;;-6.70;33.10;;;;;;4953860;28;20556;-59
2022/12/13 06:16:51;;;;;;;36.33;19.90;;;-6.30;33.50;;;;;;4949139;28;20457;-59
2022/12/13 06:19:18;;;;;;;36.17;19.00;;;-6.70;33.20;;;;;;4953594;28;20557;-59
2022/12/13 06:21:45;;;;;;;36.43;19.60;;;-6.80;33.20;;;;;;4950820;28;20584;-59
2022/12/13 06:24:12;;;;;;;36.67;18.40;;;-6.80;33.10;;;;;;4942389;28;20463;-59
2022/12/13 06:26:40;;;;;;;33.67;18.30;;;-6.80;33.20;;;;;;4949441;28;20474;-59
2022/12/13 06:29:06;;;;;;;38.77;18.03;;;-6.80;33.30;;;;;;4955946;28;20473;-59
2022/12/13 06:31:33;;;;;;;31.40;17.60;;;-6.80;33.10;;;;;;4948720;28;20487;-59
2022/12/13 06:34:01;;;;;;;29.87;15.90;;;-6.80;33.00;;;;;;4947236;28;20467;-59
2022/12/13 06:36:28;;;;;;;30.30;16.70;;;-7.10;33.00;;;;;;4956487;28;20457;-59
2022/12/13 06:38:55;;;;;;;35.90;17.77;;;-6.80;33.10;;;;;;4949811;28;20497;-60
2022/12/13 06:41:22;;;;;;;32.23;17.60;;;-6.70;33.20;;;;;;4950413;28;20482;-60
2022/12/13 06:43:50;;;;;;;34.30;18.40;;;-6.80;33.00;;;;;;4959364;28;20469;-59
2022/12/13 06:46:17;;;;;;;37.57;19.20;;;-6.90;33.10;;;;;;4952014;28;20635;-59
2022/12/13 06:48:44;;;;;;;33.07;18.00;;;-6.90;33.00;;;;;;4947134;28;20920;-59
2022/12/13 06:51:11;;;;;;;36.00;17.63;;;-6.90;33.00;;;;;;4950129;28;20526;-59
2022/12/13 06:53:39;;;;;;;31.53;17.60;;;-6.90;32.90;;;;;;4952770;28;20463;-60
2022/12/13 06:56:08;;;;;;;35.90;17.47;;;-6.90;33.00;;;;;;4955039;28;20466;-60
2022/12/13 06:58:36;;;;;;;32.90;17.50;;;-6.90;33.00;;;;;;4954370;28;20477;-59
2022/12/13 07:01:06;;;;;;;32.60;18.40;;;-6.90;33.10;;;;;;4960371;28;20478;-60
2022/12/13 07:03:33;;;;;;;33.80;18.37;;;-6.80;33.20;;;;;;4952668;28;20493;-60
2022/12/13 07:06:01;;;;;;;38.93;18.60;;;-6.80;33.20;;;;;;4949151;28;20478;-59
2022/12/13 07:08:27;;;;;;;39.30;19.00;;;-6.80;33.20;;;;;;4952242;28;20855;-59
2022/12/13 07:10:54;;;;;;;33.77;18.07;;;-6.70;33.20;;;;;;4950235;28;21189;-59
2022/12/13 07:13:21;;;;;;;37.53;19.10;;;-6.70;33.20;;;;;;4956743;28;20472;-59
2022/12/13 07:15:49;;;;;;;36.37;18.67;;;-6.70;33.10;;;;;;4953040;28;20476;-60
2022/12/13 07:18:17;;;;;;;38.40;19.07;;;-6.70;33.00;;;;;;4957110;28;20466;-59
2022/12/13 07:20:44;;;;;;;30.43;16.37;;;-6.70;33.00;;;;;;4948881;28;20454;-59
2022/12/13 07:23:12;;;;;;;36.10;18.60;;;-6.60;33.00;;;;;;4956995;28;20472;-59
2022/12/13 07:25:39;;;;;;;42.97;20.43;;;-6.60;32.90;;;;;;4960896;28;20466;-59
2022/12/13 07:28:08;;;;;;;36.47;17.97;;;-6.60;33.00;;;;;;4962197;28;20462;-59
2022/12/13 07:30:36;;;;;;;44.57;21.93;;;-6.50;33.00;;;;;;4952497;28;20467;-60
2022/12/13 07:33:03;;;;;;;35.70;18.50;;;-6.70;33.00;;;;;;4961370;28;20876;-60
2022/12/13 07:35:32;;;;;;;38.03;17.47;;;-6.40;33.00;;;;;;4959428;28;20466;-59
2022/12/13 07:37:59;;;;;;;38.23;18.73;;;-6.30;33.10;;;;;;4960406;28;20465;-59
2022/12/13 07:40:26;;;;;;;35.63;21.87;;;-6.20;33.00;;;;;;4957179;28;20469;-59
2022/12/13 07:42:53;;;;;;;38.70;18.73;;;-6.10;33.20;;;;;;4965251;28;21034;-59
2022/12/13 07:45:20;;;;;;;38.87;19.70;;;-6.10;32.80;;;;;;4957157;28;20570;-60
2022/12/13 07:47:47;;;;;;;41.07;19.33;;;-6.00;32.70;;;;;;4955733;28;20476;-59
2022/12/13 07:50:15;;;;;;;36.47;17.13;;;-5.90;32.70;;;;;;4956846;28;20489;-60
2022/12/13 07:52:43;;;;;;;36.13;18.60;;;-5.80;32.50;;;;;;4955845;28;20897;-59
2022/12/13 07:55:09;;;;;;;35.07;19.10;;;-5.70;32.50;;;;;;4955573;28;20863;-59
2022/12/13 07:57:36;;;;;;;32.90;18.10;;;-5.60;32.20;;;;;;4955176;28;20474;-60
2022/12/13 08:00:04;;;;;;;36.17;17.87;;;-5.60;32.10;;;;;;4964150;28;20871;-59
2022/12/13 08:02:30;;;;;;;39.23;17.40;;;-5.50;32.00;;;;;;4957746;28;20562;-59
2022/12/13 08:04:57;;;;;;;35.30;20.37;;;-5.40;31.90;;;;;;4955720;28;20466;-60
2022/12/13 08:07:24;;;;;;;43.77;21.57;;;-5.30;31.70;;;;;;4954757;28;20463;-60
2022/12/13 08:09:54;;;;;;;40.33;21.90;;;-5.10;31.60;;;;;;4952995;28;20492;-60
2022/12/13 08:12:21;;;;;;;42.03;23.20;;;-4.90;31.30;;;;;;4957125;28;20499;-60
2022/12/13 08:14:47;;;;;;;41.87;22.20;;;-4.80;31.00;;;;;;4960547;28;20464;-60
2022/12/13 08:17:14;;;;;;;39.60;20.80;;;-4.30;31.20;;;;;;4959830;28;20461;-60
2022/12/13 08:19:41;;;;;;;37.93;19.43;;;-4.60;30.80;;;;;;4958534;28;20998;-60
2022/12/13 08:22:11;;;;;;;37.30;18.50;;;-4.50;30.50;;;;;;4949828;28;20531;-60
2022/12/13 08:24:38;;;;;;;37.30;18.17;;;-4.40;30.10;;;;;;4956152;28;20463;-60
2022/12/13 08:27:06;;;;;;;36.90;18.60;;;-4.30;29.80;;;;;;4952668;28;20462;-60
2022/12/13 08:29:35;;;;;;;31.47;17.93;;;-4.30;29.80;;;;;;4953518;28;20498;-60
2022/12/13 08:32:03;;;;;;;31.27;16.53;;;-4.10;29.80;;;;;;4951854;28;20502;-60
2022/12/13 08:34:30;;;;;;;36.00;17.50;;;-4.00;29.70;;;;;;4949871;28;20459;-60
2022/12/13 08:36:57;;;;;;;31.63;17.30;;;-3.80;29.60;;;;;;4960963;28;20876;-60
2022/12/13 08:39:24;;;;;;;29.53;16.30;;;-3.50;27.70;;;;;;4952789;28;20473;-60
2022/12/13 08:41:51;;;;;;;34.10;19.37;;;-3.30;27.70;;;;;;4956605;28;20544;-60
2022/12/13 08:44:19;;;;;;;34.27;17.60;;;-3.10;27.80;;;;;;4961793;28;20470;-60
2022/12/13 08:46:45;;;;;;;33.90;18.63;;;-2.80;27.50;;;;;;4951510;28;20454;-60
2022/12/13 08:49:12;;;;;;;28.37;16.50;;;-2.60;26.20;;;;;;4951509;28;20471;-60
2022/12/13 08:51:39;;;;;;;30.43;15.53;;;-2.40;26.10;;;;;;4954698;28;20490;-60
2022/12/13 08:54:06;;;;;;;30.00;17.70;;;-2.30;25.90;;;;;;4950775;28;20963;-59
2022/12/13 08:56:33;;;;;;;30.20;16.30;;;-2.20;25.30;;;;;;4952440;28;20467;-59
2022/12/13 08:58:59;;;;;;;30.20;16.07;;;-2.10;25.20;;;;;;4953871;28;20465;-60
2022/12/13 09:01:27;;;;;;;27.60;16.13;;;-1.90;25.00;;;;;;4960423;28;20499;-60
2022/12/13 09:03:55;;;;;;;26.33;15.47;;;-1.70;24.30;;;;;;4954079;28;20462;-60
2022/12/13 09:06:22;;;;;;;27.43;15.20;;;-1.60;23.80;;;;;;4963959;28;20954;-59
2022/12/13 09:08:52;;;;;;;24.63;14.90;;;-1.50;23.60;;;;;;4957962;28;20516;-60
2022/12/13 09:11:19;;;;;;;31.13;18.70;;;-1.50;23.00;;;;;;4956546;28;20482;-60
2022/12/13 09:13:46;;;;;;;34.97;17.50;;;-1.40;22.90;;;;;;4953175;28;20472;-60
2022/12/13 09:16:14;;;;;;;30.33;16.63;;;-1.30;22.70;;;;;;4959177;28;20465;-60
2022/12/13 09:18:42;;;;;;;23.47;15.37;;;-1.20;22.40;;;;;;4956216;28;20467;-60
2022/12/13 09:21:11;;;;;;;24.27;14.40;;;-1.00;21.90;;;;;;4954660;28;20514;-60
2022/12/13 09:23:39;;;;;;;24.10;14.67;;;-0.80;21.20;;;;;;4949416;28;20489;-59
2022/12/13 09:26:06;;;;;;;28.33;14.73;;;-0.70;20.90;;;;;;4960183;28;20878;-59
2022/12/13 09:28:33;;;;;;;27.40;16.67;;;-0.60;20.60;;;;;;4960017;28;20476;-60
2022/12/13 09:31:00;;;;;;;25.27;15.33;;;-0.60;20.40;;;;;;4957343;28;20484;-60
2022/12/13 09:33:27;;;;;;;27.50;14.77;;;-0.50;20.30;;;;;;4951587;28;20848;-60
2022/12/13 09:35:55;;;;;;;27.97;16.03;;;-0.50;19.90;;;;;;4955240;28;20461;-59
2022/12/13 09:38:22;;;;;;;28.20;16.30;;;-0.50;19.90;;;;;;4947105;28;20474;-60
2022/12/13 09:40:52;;;;;;;27.47;15.50;;;-0.50;19.50;;;;;;4956757;28;20485;-60
2022/12/13 09:43:24;;;;;;;28.53;15.80;;;-0.60;19.70;;;;;;4958665;28;20451;-60
2022/12/13 09:45:51;;;;;;;26.73;16.93;;;-0.50;19.80;;;;;;4953456;28;20461;-59
2022/12/13 09:48:20;;;;;;;27.30;16.07;;;-0.50;19.50;;;;;;4948750;28;20470;-60
2022/12/13 09:50:48;;;;;;;26.70;16.00;;;-0.50;19.20;;;;;;4960625;28;20470;-60
2022/12/13 09:53:19;;;;;;;28.80;15.17;;;-0.50;19.50;;;;;;4948859;28;20467;-60
2022/12/13 09:55:48;;;;;;;26.47;15.27;;;-0.50;19.50;;;;;;4950269;28;20458;-60
2022/12/13 09:58:24;;;;;;;28.87;15.90;;;-0.40;19.70;;;;;;4950043;28;20470;-60
2022/12/13 10:00:54;;;;;;;26.17;15.03;;;-0.40;19.60;;;;;;4943085;28;20476;-60
2022/12/13 10:03:23;;;;;;;23.83;14.40;;;-0.40;19.30;;;;;;4954010;28;20473;-59
2022/12/13 10:05:57;;;;;;;25.33;15.93;;;-0.40;19.40;;;;;;4953171;28;20485;-60
2022/12/13 10:08:31;;;;;;;27.20;15.37;;;-0.40;19.50;;;;;;4959687;28;20516;-60
2022/12/13 10:10:58;;;;;;;27.00;16.37;;;-0.40;19.60;;;;;;4950114;28;20475;-60
2022/12/13 10:13:35;;;;;;;24.13;15.50;;;-0.30;19.40;;;;;;4945023;28;20485;-60
2022/12/13 10:16:06;;;;;;;26.30;15.77;;;-0.20;19.50;;;;;;4959154;28;20542;-60
2022/12/13 10:18:35;;;;;;;24.17;14.70;;;0.00;19.40;;;;;;4953831;28;20470;-60
2022/12/13 10:21:07;;;;;;;24.23;14.77;;;0.00;19.10;;;;;;4949115;28;20852;-60
2022/12/13 10:23:35;;;;;;;25.30;15.00;;;0.30;19.20;;;;;;4961350;28;20454;-60
2022/12/13 10:26:07;;;;;;;29.83;18.80;;;0.60;18.90;;;;;;4959789;28;21045;-60
2022/12/13 10:28:35;;;;;;;37.57;20.30;;;1.00;18.70;;;;;;4962835;28;20461;-60
2022/12/13 10:31:02;;;;;;;26.33;16.17;;;1.50;18.40;;;;;;4954603;28;21020;-60
2022/12/13 10:33:31;;;;;;;26.80;16.17;;;2.10;17.00;;;;;;4954858;28;20470;-60
2022/12/13 10:36:16;;;;;;;23.63;14.40;;;2.40;15.70;;;;;;4957936;28;20468;-60
2022/12/13 10:38:46;;;;;;;22.87;14.80;;;2.60;15.40;;;;;;4958975;28;20469;-60
2022/12/13 10:41:29;;;;;;;25.70;15.20;;;3.00;15.40;;;;;;4950854;28;20509;-60
2022/12/13 10:44:19;;;;;;;23.13;15.70;;;3.20;13.70;;;;;;4950265;28;20463;-60
2022/12/13 10:46:59;;;;;;;23.87;14.93;;;3.40;13.40;;;;;;4945003;28;20484;-60
2022/12/13 10:49:31;;;;;;;21.33;14.10;;;3.70;11.90;;;;;;4959573;28;20517;-60
2022/12/13 10:52:01;;;;;;;18.67;13.33;;;4.10;11.70;;;;;;4954128;28;20576;-60
2022/12/13 10:54:31;;;;;;;22.97;13.43;;;4.20;10.80;;;;;;4953295;28;20486;-59
2022/12/13 10:56:59;;;;;;;22.97;14.57;;;4.30;10.90;;;;;;4951015;28;20471;-60
2022/12/13 10:59:31;;;;;;;22.50;14.13;;;4.40;10.00;;;;;;4954150;28;20462;-60
2022/12/13 11:02:00;;;;;;;22.93;13.33;;;4.70;10.00;;;;;;4961112;28;21239;-60
2022/12/13 11:04:30;;;;;;;23.37;14.50;;;5.00;9.80;;;;;;4946535;28;20856;-60
2022/12/13 11:06:58;;;;;;;23.03;13.10;;;5.40;9.50;;;;;;4967114;28;20846;-60
2022/12/13 11:09:27;;;;;;;22.20;13.63;;;5.90;9.10;;;;;;4953808;28;20458;-60
2022/12/13 11:11:58;;;;;;;19.60;11.73;;;6.40;8.40;;;;;;4961424;28;20997;-60
2022/12/13 11:14:28;;;;;;;18.63;11.73;;;6.70;7.60;;;;;;4954938;28;20470;-61
2022/12/13 11:16:57;;;;;;;21.23;12.67;;;6.90;6.70;;;;;;4967759;28;20492;-60
2022/12/13 11:19:27;;;;;;;18.47;12.90;;;7.10;6.80;;;;;;4949872;28;20455;-60
2022/12/13 11:21:55;;;;;;;19.70;12.03;;;7.40;6.30;;;;;;4949518;28;20830;-60
2022/12/13 11:24:25;;;;;;;21.93;13.20;;;7.50;5.70;;;;;;4957312;28;20485;-60
2022/12/13 11:26:57;;;;;;;20.20;13.80;;;7.60;6.10;;;;;;4955378;28;20477;-60
2022/12/13 11:29:45;;;;;;;22.33;13.93;;;7.90;5.40;;;;;;4961260;28;20954;-60
2022/12/13 11:32:21;;;;;;;19.30;12.67;;;7.90;5.10;;;;;;4956276;28;20485;-60
2022/12/13 11:34:55;;;;;;;17.37;11.20;;;8.00;5.10;;;;;;4958484;28;20463;-60
2022/12/13 11:37:28;;;;;;;24.10;15.33;;;8.00;4.80;;;;;;4953977;28;20473;-60
2022/12/13 11:39:58;;;;;;;19.53;12.70;;;7.70;4.70;;;;;;4956954;28;20465;-60
2022/12/13 11:42:31;;;;;;;20.87;14.13;;;7.70;5.80;;;;;;4959213;28;20474;-60
2022/12/13 11:45:05;;;;;;;20.23;12.90;;;7.70;5.40;;;;;;4964416;28;20516;-61
2022/12/13 11:47:39;;;;;;;21.40;13.70;;;7.60;5.40;;;;;;4955165;28;20488;-60
2022/12/13 11:50:15;;;;;;;22.40;14.00;;;7.20;5.70;;;;;;4965610;28;20462;-60
2022/12/13 11:52:48;;;;;;;21.23;13.70;;;6.80;6.30;;;;;;4957616;28;20496;-60
2022/12/13 11:55:19;;;;;;;19.67;13.40;;;6.60;6.80;;;;;;4960229;28;20977;-61
2022/12/13 11:57:55;;;;;;;22.17;13.67;;;6.40;7.00;;;;;;4949970;28;20466;-60
2022/12/13 12:00:31;;;;;;;23.70;14.90;;;6.20;7.30;;;;;;4962214;28;20468;-60
2022/12/13 12:03:06;;;;;;;20.40;13.57;;;5.90;7.80;;;;;;4950665;28;20490;-60
2022/12/13 12:05:35;;;;;;;20.73;13.13;;;5.60;8.30;;;;;;4951704;28;20485;-60
2022/12/13 12:08:09;;;;;;;21.07;13.90;;;5.10;8.30;;;;;;4958598;28;20473;-60
2022/12/13 12:10:41;;;;;;;23.47;14.97;;;4.70;9.20;;;;;;4954729;28;20473;-60
2022/12/13 12:13:15;;;;;;;21.90;14.40;;;4.30;9.90;;;;;;4955817;28;21109;-60
2022/12/13 12:15:49;;;;;;;26.10;14.83;;;4.00;10.50;;;;;;4957231;28;20461;-60
2022/12/13 12:18:16;;;;;;;21.13;14.13;;;3.80;11.10;;;;;;4957214;28;20942;-60
2022/12/13 12:21:00;;;;;;;23.63;13.87;;;3.60;11.50;;;;;;4958273;28;20474;-61
2022/12/13 12:23:38;;;;;;;24.27;15.20;;;3.50;12.00;;;;;;4960993;28;20457;-60
2022/12/13 12:26:09;;;;;;;22.70;14.30;;;3.30;12.40;;;;;;4950292;28;20463;-60
2022/12/13 12:29:07;;;;;;;25.37;14.20;;;3.10;12.90;;;;;;4952910;28;20474;-60
2022/12/13 12:31:42;;;;;;;23.03;14.17;;;3.00;13.20;;;;;;4957531;28;20478;-60
2022/12/13 12:34:16;;;;;;;26.87;15.50;;;2.80;13.60;;;;;;4959329;28;21165;-59
2022/12/13 12:36:55;;;;;;;23.37;13.37;;;2.70;14.10;;;;;;4959090;28;20987;-60
2022/12/13 12:39:38;;;;;;;22.20;13.30;;;2.60;14.30;;;;;;4959369;28;20465;-60
2022/12/13 12:42:21;;;;;;;22.20;15.30;;;2.60;14.50;;;;;;4956058;28;20477;-60
2022/12/13 12:45:03;;;;;;;27.70;15.97;;;2.50;14.70;;;;;;4953853;28;20470;-60
2022/12/13 12:47:39;;;;;;;27.93;15.97;;;2.40;14.90;;;;;;4948728;28;20466;-60